EDXW/GWT METAR and TAF weather

Enter ICAO airport designator
Station Type Date Time Source
EDXW METAR 2018/10/16 16:50 UTC NOAA

EDXW 161650Z 19007KT 3000 BR OVC002 14/14 Q1018


Station Type Date Time Source
EDXW Decoded METAR 2018/10/16 16:50 UTC NOAA

Westerland / Sylt, Germany (EDXW) 54-55N 008-21E 20M
Oct 16, 2018 - 12:50 PM EDT / 2018.10.16 1650 UTC
Wind: from the S (190 degrees) at 8 MPH (7 KT):0
Visibility: 1 mile(s):0
Sky conditions: overcast
Weather: mist
Temperature: 57 F (14 C)
Dew Point: 57 F (14 C)
Relative Humidity: 100%
Pressure (altimeter): 30.06 in. Hg (1018 hPa)
ob: EDXW 161650Z 19007KT 3000 BR OVC002 14/14 Q1018
cycle: 17

Station Type Date Time Source
EDXW TAF 2009/07/07 14:00 UTC NOAA

TAF EDXW 071400Z 0715/0719 22015G25KT 9999 SCT020


Example: see airport list